EFW61U LEAL-EGKK
Flight info
| Callsign | EFW61U |
|---|---|
| Flight time | N/A |
| Altitude | 36000 |
| Route | MITOS N608 COMPI Y90 USKAR DCT MOPAS DCT GIROM DCT GONUP DCT MANAK DCT EPAPU UM184 EKRAS UT507 REVTU/N0439F340 UP88 VASUX |
| Aircraft | A320/M-SDE3FGHIJ1RWXY/SB1 |
Departure
| Time | 2026-05-07 10:31 |
|---|---|
| Airport | Alicante-Elche Miguel Hernández Airport (LEAL) |
Arrival
| Time | N/A |
|---|---|
| Airport | London Gatwick Airport (EGKK) |
| Time | Latitude | Longitude | Altitude | Speed | Heading |
|---|---|---|---|---|---|
| 2026-05-07 09:35 | 38.28415 | -0.55511 | 98 ft | 0 kts | 228° |
| 2026-05-07 10:23 | 38.28414 | -0.55512 | 96 ft | 1 kts | 229° |
| 2026-05-07 10:23 | 38.28415 | -0.55525 | 96 ft | 1 kts | 279° |
| 2026-05-07 10:24 | 38.28421 | -0.55535 | 97 ft | 2 kts | 306° |
| 2026-05-07 10:24 | 38.28428 | -0.55554 | 97 ft | 4 kts | 289° |
| 2026-05-07 10:24 | 38.28425 | -0.55590 | 100 ft | 5 kts | 248° |
| 2026-05-07 10:24 | 38.28392 | -0.55612 | 96 ft | 7 kts | 188° |
| 2026-05-07 10:25 | 38.28376 | -0.55673 | 96 ft | 9 kts | 276° |
| 2026-05-07 10:25 | 38.28385 | -0.55754 | 97 ft | 10 kts | 278° |
| 2026-05-07 10:25 | 38.28398 | -0.55847 | 97 ft | 11 kts | 280° |
| 2026-05-07 10:25 | 38.28413 | -0.55948 | 99 ft | 12 kts | 280° |
| 2026-05-07 10:26 | 38.28429 | -0.56059 | 97 ft | 13 kts | 280° |
| 2026-05-07 10:26 | 38.28445 | -0.56176 | 100 ft | 13 kts | 279° |
| 2026-05-07 10:26 | 38.28459 | -0.56278 | 102 ft | 10 kts | 280° |
| 2026-05-07 10:26 | 38.28470 | -0.56356 | 104 ft | 9 kts | 280° |
| 2026-05-07 10:27 | 38.28485 | -0.56461 | 110 ft | 13 kts | 280° |
| 2026-05-07 10:27 | 38.28503 | -0.56590 | 115 ft | 16 kts | 280° |
| 2026-05-07 10:27 | 38.28520 | -0.56716 | 121 ft | 13 kts | 280° |
| 2026-05-07 10:27 | 38.28534 | -0.56817 | 126 ft | 10 kts | 280° |
| 2026-05-07 10:28 | 38.28548 | -0.56913 | 130 ft | 14 kts | 280° |
| 2026-05-07 10:28 | 38.28558 | -0.56987 | 133 ft | 12 kts | 279° |
| 2026-05-07 10:28 | 38.28572 | -0.57089 | 138 ft | 11 kts | 280° |
| 2026-05-07 10:28 | 38.28585 | -0.57179 | 141 ft | 10 kts | 280° |
| 2026-05-07 10:29 | 38.28595 | -0.57252 | 145 ft | 10 kts | 280° |
| 2026-05-07 10:29 | 38.28608 | -0.57346 | 149 ft | 10 kts | 280° |
| 2026-05-07 10:29 | 38.28594 | -0.57416 | 151 ft | 8 kts | 220° |
| 2026-05-07 10:30 | 38.28465 | -0.57442 | 152 ft | 7 kts | 180° |
| 2026-05-07 10:30 | 38.28437 | -0.57388 | 151 ft | 11 kts | 99° |
| 2026-05-07 10:30 | 38.28393 | -0.57068 | 141 ft | 69 kts | 100° |
| 2026-05-07 10:30 | 38.28275 | -0.56224 | 115 ft | 125 kts | 100° |
| 2026-05-07 10:31 | 38.28092 | -0.54916 | 142 ft | 165 kts | 98° |
| 2026-05-07 10:31 | 38.27878 | -0.53477 | 723 ft | 166 kts | 99° |
| 2026-05-07 10:31 | 38.27641 | -0.52031 | 1374 ft | 167 kts | 101° |
| 2026-05-07 10:31 | 38.27408 | -0.50503 | 1635 ft | 187 kts | 94° |
| 2026-05-07 10:32 | 38.27729 | -0.48856 | 1867 ft | 206 kts | 59° |
| 2026-05-07 10:32 | 38.28587 | -0.47258 | 2162 ft | 231 kts | 57° |
| 2026-05-07 10:32 | 38.29527 | -0.45485 | 2708 ft | 248 kts | 57° |
| 2026-05-07 10:32 | 38.30495 | -0.43637 | 3564 ft | 252 kts | 57° |
| 2026-05-07 10:33 | 38.31470 | -0.41767 | 4424 ft | 255 kts | 57° |
| 2026-05-07 10:33 | 38.32417 | -0.39837 | 5217 ft | 260 kts | 66° |
| 2026-05-07 10:33 | 38.33106 | -0.37695 | 6005 ft | 263 kts | 70° |
| 2026-05-07 10:33 | 38.33780 | -0.35512 | 6803 ft | 267 kts | 70° |
| 2026-05-07 10:34 | 38.34462 | -0.33287 | 7553 ft | 272 kts | 70° |
| 2026-05-07 10:34 | 38.35156 | -0.31026 | 8337 ft | 277 kts | 70° |
| 2026-05-07 10:34 | 38.35867 | -0.28719 | 9186 ft | 283 kts | 70° |
| 2026-05-07 10:34 | 38.36606 | -0.26371 | 9892 ft | 288 kts | 69° |
| 2026-05-07 10:35 | 38.37393 | -0.23980 | 10357 ft | 300 kts | 69° |
| 2026-05-07 10:35 | 38.38238 | -0.21447 | 10507 ft | 322 kts | 68° |
| 2026-05-07 10:35 | 38.39150 | -0.18740 | 10743 ft | 339 kts | 68° |
| 2026-05-07 10:35 | 38.40092 | -0.15945 | 11281 ft | 345 kts | 68° |
| 2026-05-07 10:36 | 38.41084 | -0.13140 | 11811 ft | 352 kts | 62° |
| 2026-05-07 10:36 | 38.42641 | -0.10691 | 12351 ft | 361 kts | 41° |
| 2026-05-07 10:36 | 38.44808 | -0.09057 | 12930 ft | 368 kts | 20° |
| 2026-05-07 10:36 | 38.47331 | -0.08469 | 13551 ft | 372 kts | 5° |
| 2026-05-07 10:37 | 38.49926 | -0.08242 | 14121 ft | 376 kts | 4° |